East Fayetteville, North Carolina
Current Conditions -  °F | °C
As of 3:53 PM on Sunday 21 Dec 2014 (Local Time) from KFAY Reporting Station
Broken Clouds Broken Clouds  
Wind Chill: 50°   Ceiling: 9000
Heat Index: 50°   Visibility: 10mi
Dew Point: 38°   Wind: 10mph
Humidity: 63%   Direction: 30°NNE
Pressure: 30.21"   Gusts: NA
Location:  35.072°N, 78.8095°W
Report Text: KFAY 212053Z AUTO 03009KT 10SM BKN090 10/03 A3021 RMK AO2 SLP224 T01000033 56012
Loading
Personal Weather Stations






























Interactive Weather Map New forecast layout! Learn more

10-Day Weather Forecast

Advertisements
Track Severe Weather on mobile